Upland, Pennsylvania
Current Conditions -  °F | °C
As of 6:14 AM on Saturday 20 Dec 2014 (Local Time) from KPHL Reporting Station
Overcast Overcast  
Wind Chill: 26°   Ceiling: 2600
Heat Index: 34°   Visibility: 10mi
Dew Point: 22°   Wind: 10mph
Humidity: 61%   Direction: 350°N
Pressure: 30.26"   Gusts: NA
Location:  39.8695°N, 75.3931°W
Report Text: KPHL 201114Z 35009KT 10SM OVC026 01/M06 A3026 RMK AO2 T00111056
Loading
Personal Weather Stations






























Interactive Weather Map New forecast layout! Learn more

10-Day Weather Forecast

Advertisements
Track Severe Weather on mobile